createdAt,value
2022-11-13T00:01:18.040Z,162.13
2022-11-13T00:03:45.206Z,42.10
2022-11-13T00:06:13.778Z,53.10
2022-11-13T00:08:40.583Z,62.97
2022-11-13T00:11:10.181Z,109.10
2022-11-13T00:13:36.939Z,345.48
2022-11-13T00:16:06.844Z,48.83
2022-11-13T00:18:37.520Z,39.50
2022-11-13T00:21:08.178Z,50.13
2022-11-13T00:23:36.172Z,201.80
2022-11-13T00:26:16.214Z,51.95
2022-11-13T00:28:43.119Z,71.32
2022-11-13T00:31:14.639Z,42.17
2022-11-13T00:36:29.182Z,32.40
2022-11-13T00:38:56.348Z,36.45
2022-11-13T00:41:23.748Z,42.90
2022-11-13T00:43:50.990Z,36.03
2022-11-13T00:46:17.988Z,35.75
2022-11-13T00:48:44.829Z,40.47
2022-11-13T00:51:12.035Z,36.50
2022-11-13T00:53:38.700Z,42.10
2022-11-13T00:56:05.788Z,42.80
2022-11-13T00:58:32.561Z,33.97
2022-11-13T01:01:16.659Z,33.85
2022-11-13T01:03:43.571Z,73.13
2022-11-13T01:06:20.453Z,37.22
2022-11-13T01:08:47.534Z,36.20
2022-11-13T01:11:19.715Z,35.67
2022-11-13T01:13:48.727Z,27.60
2022-11-13T01:16:18.245Z,36.65
2022-11-13T01:18:45.021Z,32.58
2022-11-13T01:21:17.529Z,39.92
2022-11-13T01:23:44.486Z,33.72
2022-11-13T01:26:21.206Z,38.67
2022-11-13T01:28:48.162Z,27.95
2022-11-13T01:31:18.404Z,30.98
2022-11-13T01:33:45.985Z,32.92
2022-11-13T01:36:25.085Z,30.75
2022-11-13T01:38:52.501Z,29.45
2022-11-13T01:41:31.510Z,35.58
2022-11-13T01:43:59.856Z,32.85
2022-11-13T01:46:41.073Z,30.60
2022-11-13T01:49:10.750Z,27.17
2022-11-13T01:51:47.586Z,31.30
2022-11-13T01:54:20.614Z,33.80
2022-11-13T01:56:48.485Z,28.20
2022-11-13T01:59:22.694Z,33.08
2022-11-13T02:01:49.441Z,32.10
2022-11-13T02:04:16.157Z,29.80
2022-11-13T02:07:01.545Z,30.08
2022-11-13T02:09:34.829Z,33.05
2022-11-13T02:12:02.418Z,33.60
2022-11-13T02:14:29.945Z,29.75
2022-11-13T02:17:00.606Z,30.70
2022-11-13T02:19:36.400Z,31.17
2022-11-13T02:24:54.515Z,33.75
2022-11-13T02:27:28.021Z,33.38
2022-11-13T02:29:54.762Z,33.58
2022-11-13T02:32:21.583Z,31.13
2022-11-13T02:34:48.256Z,33.85
2022-11-13T02:37:14.977Z,31.20
2022-11-13T02:39:41.640Z,38.03
2022-11-13T02:42:08.282Z,33.42
2022-11-13T02:44:34.972Z,33.00
2022-11-13T02:47:01.622Z,41.78
2022-11-13T02:49:28.271Z,38.83
2022-11-13T02:51:55.026Z,36.03
2022-11-13T02:54:21.709Z,39.28
2022-11-13T02:56:48.379Z,33.00
2022-11-13T02:59:15.065Z,35.60
2022-11-13T03:01:41.816Z,34.45
2022-11-13T03:04:08.476Z,35.78
2022-11-13T03:06:35.188Z,33.33
2022-11-13T03:09:01.862Z,32.75
2022-11-13T03:11:28.615Z,32.80
2022-11-13T03:13:55.310Z,32.10
2022-11-13T03:16:22.032Z,31.48
2022-11-13T03:18:48.702Z,49.40
2022-11-13T03:21:16.012Z,34.67
2022-11-13T03:23:43.505Z,31.85
2022-11-13T03:26:11.944Z,34.58
2022-11-13T03:28:38.701Z,33.53
2022-11-13T03:31:05.781Z,29.45
2022-11-13T03:33:32.933Z,30.65
2022-11-13T03:35:59.697Z,30.17
2022-11-13T03:38:26.943Z,28.45
2022-11-13T03:40:53.903Z,25.98
2022-11-13T03:43:20.635Z,30.35
2022-11-13T03:45:48.086Z,27.27
2022-11-13T03:48:15.700Z,24.38
2022-11-13T03:50:48.664Z,27.67
2022-11-13T03:53:15.983Z,23.48
2022-11-13T03:55:43.112Z,26.48
2022-11-13T03:58:10.190Z,29.08
2022-11-13T04:00:38.166Z,21.58
2022-11-13T04:03:04.801Z,25.25
2022-11-13T04:05:31.576Z,21.02
2022-11-13T04:07:58.322Z,24.10
2022-11-13T04:10:25.858Z,23.67
2022-11-13T04:12:52.578Z,23.40
2022-11-13T04:15:19.288Z,21.40
2022-11-13T04:17:45.952Z,22.33
2022-11-13T04:20:12.775Z,22.90
2022-11-13T04:22:39.557Z,23.88
2022-11-13T04:25:07.217Z,23.70
2022-11-13T04:27:34.643Z,21.27
2022-11-13T04:30:01.466Z,21.63
2022-11-13T04:32:28.270Z,21.95
2022-11-13T04:34:54.916Z,22.05
2022-11-13T04:37:21.619Z,22.15
2022-11-13T04:39:48.542Z,26.52
2022-11-13T04:42:15.242Z,22.05
2022-11-13T04:44:41.932Z,24.60
2022-11-13T04:47:09.049Z,22.42
2022-11-13T04:49:35.734Z,21.95
2022-11-13T04:52:02.392Z,23.67
2022-11-13T04:54:29.205Z,21.85
2022-11-13T04:56:56.112Z,19.27
2022-11-13T04:59:22.742Z,21.13
2022-11-13T05:01:49.381Z,20.08
2022-11-13T05:04:16.647Z,19.85
2022-11-13T05:06:43.329Z,19.77
2022-11-13T05:09:11.433Z,18.77
2022-11-13T05:11:38.262Z,21.90
2022-11-13T05:14:05.359Z,45.78
2022-11-13T05:16:34.693Z,49.03
2022-11-13T05:19:01.611Z,87.15
2022-11-13T05:21:28.275Z,28.70
2022-11-13T05:23:54.940Z,164.90
2022-11-13T05:26:21.615Z,89.90
2022-11-13T05:28:48.270Z,80.53
2022-11-13T05:31:16.367Z,119.97
2022-11-13T05:33:43.418Z,96.93
2022-11-13T05:36:14.823Z,68.18
2022-11-13T05:38:42.306Z,51.42
2022-11-13T05:41:17.033Z,37.88
2022-11-13T05:43:44.091Z,25.67
2022-11-13T05:46:13.875Z,27.13
2022-11-13T05:48:41.617Z,71.13
2022-11-13T05:51:29.980Z,79.63
2022-11-13T05:53:56.992Z,31.92
2022-11-13T05:56:29.533Z,124.85
2022-11-13T05:58:58.387Z,35.63
2022-11-13T06:01:31.330Z,37.13
2022-11-13T06:03:59.946Z,45.42
2022-11-13T06:06:30.158Z,47.83
2022-11-13T06:08:59.181Z,50.15
2022-11-13T06:11:28.576Z,52.08
2022-11-13T06:13:56.192Z,75.53
2022-11-13T06:16:26.440Z,105.97
2022-11-13T06:18:58.566Z,119.82
2022-11-13T06:21:28.424Z,209.27
2022-11-13T06:23:56.687Z,52.58
2022-11-13T06:26:41.682Z,64.47
2022-11-13T06:29:11.935Z,43.35
2022-11-13T06:31:38.647Z,48.38
2022-11-13T06:34:06.975Z,41.92
2022-11-13T06:36:36.389Z,37.65
2022-11-13T06:39:07.015Z,42.65
2022-11-13T06:41:34.124Z,74.20
2022-11-13T06:44:02.975Z,50.05
2022-11-13T06:46:30.657Z,51.45
2022-11-13T06:48:57.887Z,35.53
2022-11-13T06:51:29.938Z,31.40
2022-11-13T06:53:57.574Z,35.03
2022-11-13T06:56:24.903Z,29.70
2022-11-13T06:58:51.857Z,32.10
2022-11-13T07:01:21.823Z,31.85
2022-11-13T07:03:50.088Z,28.42
2022-11-13T07:06:25.754Z,27.00
2022-11-13T07:11:21.715Z,25.25
2022-11-13T07:13:48.832Z,27.42
2022-11-13T07:16:17.915Z,25.85
2022-11-13T07:18:49.945Z,26.83
2022-11-13T07:21:16.734Z,28.13
2022-11-13T07:23:43.764Z,34.60
2022-11-13T07:26:13.694Z,38.35
2022-11-13T07:28:40.771Z,33.35
2022-11-13T07:31:07.931Z,28.25
2022-11-13T07:33:37.584Z,31.58
2022-11-13T07:36:04.774Z,32.33
2022-11-13T07:38:31.951Z,28.75
2022-11-13T07:40:59.414Z,31.60
2022-11-13T07:43:26.323Z,30.92
2022-11-13T07:45:53.541Z,31.40
2022-11-13T07:48:21.563Z,33.42
2022-11-13T07:50:48.375Z,32.53
2022-11-13T07:53:15.512Z,31.80
2022-11-13T07:55:42.310Z,37.33
2022-11-13T07:58:09.656Z,31.23
2022-11-13T08:00:36.599Z,34.67
2022-11-13T08:03:09.039Z,33.20
2022-11-13T08:05:36.371Z,37.03
2022-11-13T08:08:04.340Z,33.50
2022-11-13T08:10:31.359Z,34.83
2022-11-13T08:13:07.444Z,37.72
2022-11-13T08:15:34.792Z,34.15
2022-11-13T08:18:02.951Z,36.67
2022-11-13T08:20:30.853Z,34.83
2022-11-13T08:22:59.231Z,38.10
2022-11-13T08:25:26.226Z,35.55
2022-11-13T08:27:54.159Z,40.75
2022-11-13T08:30:21.687Z,35.53
2022-11-13T08:32:48.966Z,38.30
2022-11-13T08:35:19.559Z,37.05
2022-11-13T08:37:47.334Z,35.90
2022-11-13T08:40:14.351Z,36.20
2022-11-13T08:42:43.780Z,37.05
2022-11-13T08:45:10.751Z,37.58
2022-11-13T08:47:37.826Z,37.70
2022-11-13T08:50:06.018Z,32.58
2022-11-13T08:52:35.305Z,32.35
2022-11-13T08:55:02.011Z,33.78
2022-11-13T08:57:28.688Z,39.33
2022-11-13T08:59:55.316Z,35.50
2022-11-13T09:02:21.988Z,32.95
2022-11-13T09:04:48.651Z,33.45
2022-11-13T09:07:15.323Z,35.05
2022-11-13T09:09:42.038Z,34.60
2022-11-13T09:12:08.821Z,32.60
2022-11-13T09:14:36.682Z,36.08
2022-11-13T09:17:03.651Z,34.22
2022-11-13T09:19:30.347Z,36.92
2022-11-13T09:21:57.001Z,40.58
2022-11-13T09:24:23.689Z,34.97
2022-11-13T09:26:50.584Z,37.03
2022-11-13T09:29:17.279Z,37.38
2022-11-13T09:31:45.079Z,38.10
2022-11-13T09:34:11.798Z,35.78
2022-11-13T09:36:38.479Z,34.30
2022-11-13T09:39:05.882Z,33.03
2022-11-13T09:41:41.672Z,33.05
2022-11-13T09:44:28.761Z,33.85
2022-11-13T09:47:23.551Z,31.83
2022-11-13T09:50:05.056Z,34.00
2022-11-13T09:52:43.618Z,29.38
2022-11-13T09:55:16.822Z,26.85
2022-11-13T09:57:55.559Z,31.80
2022-11-13T10:00:23.462Z,27.38
2022-11-13T10:03:54.231Z,25.70
2022-11-13T10:06:18.027Z,24.00
2022-11-13T10:08:51.640Z,23.13
2022-11-13T10:11:40.555Z,23.60
2022-11-13T10:14:31.483Z,24.02
2022-11-13T10:17:11.039Z,25.88
2022-11-13T10:19:59.273Z,23.20
2022-11-13T10:22:36.878Z,24.70
2022-11-13T10:25:17.624Z,28.30
2022-11-13T10:27:50.286Z,22.00
2022-11-13T10:30:19.107Z,24.00
2022-11-13T10:32:46.463Z,22.23
2022-11-13T10:35:35.960Z,24.95
2022-11-13T10:38:25.914Z,23.45
2022-11-13T10:40:52.811Z,48.17
2022-11-13T10:43:22.676Z,22.85
2022-11-13T10:46:02.644Z,24.50
2022-11-13T10:48:36.083Z,25.25
2022-11-13T10:51:06.682Z,21.75
2022-11-13T10:53:42.443Z,24.50
2022-11-13T10:59:09.158Z,24.35
2022-11-13T11:01:35.976Z,21.67
2022-11-13T11:04:07.443Z,25.42
2022-11-13T11:07:12.606Z,21.67
2022-11-13T11:09:42.514Z,20.85
2022-11-13T11:12:27.143Z,22.33
2022-11-13T11:14:57.115Z,24.67
2022-11-13T11:17:33.190Z,26.05
2022-11-13T11:20:21.017Z,21.30
2022-11-13T11:23:01.075Z,22.33
2022-11-13T11:25:36.147Z,22.35
2022-11-13T11:28:13.053Z,24.40
2022-11-13T11:31:06.380Z,19.05
2022-11-13T11:33:37.347Z,22.40
2022-11-13T11:36:33.193Z,20.90
2022-11-13T11:39:02.058Z,24.67
2022-11-13T11:41:42.397Z,21.17
2022-11-13T11:44:34.888Z,22.38
2022-11-13T11:47:01.648Z,24.30
2022-11-13T11:49:29.151Z,21.65
2022-11-13T11:52:22.074Z,19.88
2022-11-13T11:55:19.839Z,19.25
2022-11-13T11:57:46.443Z,24.95
2022-11-13T12:00:16.519Z,20.85
2022-11-13T12:02:55.393Z,25.73
2022-11-13T12:06:03.650Z,24.58
2022-11-13T12:09:02.888Z,21.13
2022-11-13T12:11:35.118Z,22.52
2022-11-13T12:14:20.951Z,22.10
2022-11-13T12:17:02.699Z,25.73
2022-11-13T12:19:49.793Z,21.40
2022-11-13T12:22:19.264Z,24.17
2022-11-13T12:25:01.121Z,22.10
2022-11-13T12:27:46.305Z,22.77
2022-11-13T12:30:19.913Z,23.75
2022-11-13T12:32:58.546Z,21.35
2022-11-13T12:35:26.760Z,23.58
2022-11-13T12:38:05.121Z,22.83
2022-11-13T12:40:43.959Z,19.30
2022-11-13T12:43:35.501Z,22.20
2022-11-13T12:46:10.317Z,22.90
2022-11-13T12:48:40.028Z,21.47
2022-11-13T12:51:15.202Z,22.10
2022-11-13T12:53:53.623Z,25.80
2022-11-13T12:56:26.459Z,21.73
2022-11-13T12:59:30.595Z,24.77
2022-11-13T13:02:09.353Z,25.92
2022-11-13T13:05:03.684Z,23.05
2022-11-13T13:07:45.198Z,24.38
2022-11-13T13:10:19.676Z,23.90
2022-11-13T13:13:23.669Z,20.73
2022-11-13T13:16:00.365Z,22.65
2022-11-13T13:18:38.738Z,21.90
2022-11-13T13:21:12.825Z,19.00
2022-11-13T13:23:43.755Z,20.88
2022-11-13T13:26:13.460Z,17.85
2022-11-13T13:28:42.134Z,20.73
2022-11-13T13:31:39.872Z,18.60
2022-11-13T13:34:48.568Z,19.30
2022-11-13T13:37:35.406Z,36.75
2022-11-13T13:40:48.409Z,23.95
2022-11-13T13:43:40.101Z,18.17
2022-11-13T13:46:17.476Z,21.27
2022-11-13T13:48:46.650Z,21.15
2022-11-13T13:51:25.294Z,26.00
2022-11-13T13:53:53.186Z,21.48
2022-11-13T13:56:21.290Z,18.77
2022-11-13T13:58:48.444Z,18.83
2022-11-13T14:01:33.351Z,20.60
2022-11-13T14:04:14.278Z,19.55
2022-11-13T14:07:00.869Z,20.33
2022-11-13T14:09:29.450Z,20.98
2022-11-13T14:12:02.451Z,18.67
2022-11-13T14:14:33.485Z,21.38
2022-11-13T14:17:00.953Z,24.77
2022-11-13T14:19:28.247Z,23.55
2022-11-13T14:22:01.601Z,21.55
2022-11-13T14:24:33.306Z,23.55
2022-11-13T14:27:08.512Z,22.15
2022-11-13T14:29:38.166Z,21.27
2022-11-13T14:32:16.018Z,21.40
2022-11-13T14:34:45.159Z,24.80
2022-11-13T14:37:31.088Z,28.23
2022-11-13T14:40:05.419Z,20.95
2022-11-13T14:42:38.148Z,24.25
2022-11-13T14:45:23.914Z,22.83
2022-11-13T14:48:17.879Z,22.63
2022-11-13T14:50:55.019Z,22.88
2022-11-13T14:53:36.438Z,24.05
2022-11-13T14:56:09.301Z,23.55
2022-11-13T14:58:46.319Z,26.38
2022-11-13T15:01:20.150Z,24.75
2022-11-13T15:03:48.366Z,24.77
2022-11-13T15:06:19.556Z,25.13
2022-11-13T15:08:47.651Z,28.38
2022-11-13T15:11:20.013Z,24.58
2022-11-13T15:13:46.776Z,27.73
2022-11-13T15:16:32.923Z,25.60
2022-11-13T15:21:26.234Z,23.45
2022-11-13T15:23:53.050Z,25.77
2022-11-13T15:26:19.739Z,23.55
2022-11-13T15:28:46.457Z,27.75
2022-11-13T15:31:34.960Z,29.42
2022-11-13T15:34:01.977Z,26.13
2022-11-13T15:36:28.650Z,28.50
2022-11-13T15:38:55.548Z,29.50
2022-11-13T15:41:25.407Z,24.63
2022-11-13T15:43:54.577Z,28.83
2022-11-13T15:46:23.045Z,27.40
2022-11-13T15:48:49.874Z,25.30
2022-11-13T15:51:39.766Z,28.02
2022-11-13T15:54:22.897Z,33.08
2022-11-13T15:56:49.649Z,28.73
2022-11-13T15:59:16.598Z,29.75
2022-11-13T16:01:43.433Z,27.60
2022-11-13T16:04:10.254Z,28.27
2022-11-13T16:06:36.990Z,32.70
2022-11-13T16:09:04.665Z,30.95
2022-11-13T16:11:33.537Z,30.73
2022-11-13T16:14:00.316Z,32.45
2022-11-13T16:16:31.197Z,32.28
2022-11-13T16:19:00.397Z,31.73
2022-11-13T16:21:27.527Z,34.50
2022-11-13T16:23:54.181Z,37.03
2022-11-13T16:26:24.014Z,37.65
2022-11-13T16:29:12.715Z,37.55
2022-11-13T16:31:39.005Z,42.05
2022-11-13T16:34:05.686Z,37.97
2022-11-13T16:36:32.417Z,38.40
2022-11-13T16:38:59.122Z,40.03
2022-11-13T16:41:25.796Z,41.00
2022-11-13T16:43:52.467Z,38.85
2022-11-13T16:46:32.411Z,44.17
2022-11-13T16:48:59.193Z,49.70
2022-11-13T16:51:26.124Z,40.72
2022-11-13T16:53:52.981Z,43.53
2022-11-13T16:56:21.827Z,44.30
2022-11-13T16:58:48.535Z,44.92
2022-11-13T17:01:16.933Z,43.40
2022-11-13T17:03:44.861Z,45.38
2022-11-13T17:06:25.180Z,49.13
2022-11-13T17:08:53.197Z,48.33
2022-11-13T17:11:19.907Z,48.28
2022-11-13T17:13:50.840Z,51.40
2022-11-13T17:16:17.958Z,51.35
2022-11-13T17:18:45.060Z,52.63
2022-11-13T17:21:11.839Z,56.20
2022-11-13T17:23:38.456Z,48.83
2022-11-13T17:26:05.626Z,55.60
2022-11-13T17:28:32.733Z,51.55
2022-11-13T17:31:03.972Z,52.88
2022-11-13T17:33:31.996Z,53.03
2022-11-13T17:35:59.673Z,50.45
2022-11-13T17:38:27.129Z,53.72
2022-11-13T17:40:54.179Z,53.17
2022-11-13T17:43:21.869Z,54.58
2022-11-13T17:45:52.437Z,51.85
2022-11-13T17:48:19.235Z,56.10
2022-11-13T17:50:55.153Z,55.95
2022-11-13T17:53:21.815Z,50.00
2022-11-13T17:55:59.658Z,53.95
2022-11-13T17:58:27.377Z,56.30
2022-11-13T18:00:54.571Z,55.05
2022-11-13T18:03:21.279Z,53.17
2022-11-13T18:05:47.931Z,55.58
2022-11-13T18:08:15.082Z,46.92
2022-11-13T18:10:42.495Z,44.17
2022-11-13T18:13:09.904Z,50.17
2022-11-13T18:15:38.196Z,44.20
2022-11-13T18:18:06.785Z,50.63
2022-11-13T18:20:39.761Z,46.00
2022-11-13T18:23:06.455Z,48.20
2022-11-13T18:25:39.678Z,44.33
2022-11-13T18:28:06.585Z,44.00
2022-11-13T18:30:33.250Z,46.08
2022-11-13T18:32:59.915Z,45.85
2022-11-13T18:35:26.546Z,43.10
2022-11-13T18:37:53.194Z,44.13
2022-11-13T18:40:19.946Z,46.05
2022-11-13T18:42:46.593Z,41.72
2022-11-13T18:45:13.353Z,42.63
2022-11-13T18:47:40.071Z,40.60
2022-11-13T18:50:06.863Z,44.70
2022-11-13T18:52:33.530Z,40.88
2022-11-13T18:55:00.240Z,42.83
2022-11-13T18:57:26.905Z,48.45
2022-11-13T18:59:53.538Z,43.63
2022-11-13T19:02:20.298Z,42.67
2022-11-13T19:04:46.984Z,38.67
2022-11-13T19:07:13.681Z,41.25
2022-11-13T19:09:40.425Z,41.17
2022-11-13T19:12:07.414Z,39.25
2022-11-13T19:14:34.070Z,41.35
2022-11-13T19:17:00.807Z,41.75
2022-11-13T19:19:27.481Z,41.55
2022-11-13T19:21:54.221Z,43.78
2022-11-13T19:24:20.937Z,41.60
2022-11-13T19:26:47.637Z,40.40
2022-11-13T19:29:14.439Z,42.75
2022-11-13T19:31:41.422Z,43.17
2022-11-13T19:34:08.433Z,42.22
2022-11-13T19:36:36.458Z,43.05
2022-11-13T19:39:03.989Z,42.20
2022-11-13T19:41:30.853Z,43.72
2022-11-13T19:43:58.868Z,42.50
2022-11-13T19:46:25.577Z,42.92
2022-11-13T19:48:52.451Z,40.08
2022-11-13T19:51:22.069Z,41.38
2022-11-13T19:53:53.374Z,43.10
2022-11-13T19:56:21.647Z,40.25
2022-11-13T19:58:49.930Z,40.03
2022-11-13T20:01:22.595Z,43.15
2022-11-13T20:03:56.870Z,41.28
2022-11-13T20:06:24.167Z,41.22
2022-11-13T20:08:50.831Z,44.50
2022-11-13T20:11:17.512Z,42.85
2022-11-13T20:13:44.398Z,39.47
2022-11-13T20:16:13.163Z,42.17
2022-11-13T20:18:40.805Z,41.33
2022-11-13T20:21:07.694Z,40.75
2022-11-13T20:23:34.860Z,41.53
2022-11-13T20:26:04.348Z,39.63
2022-11-13T20:28:31.606Z,41.20
2022-11-13T20:31:16.553Z,44.95
2022-11-13T20:33:43.598Z,40.53
2022-11-13T20:36:10.402Z,56.50
2022-11-13T20:38:38.090Z,45.40
2022-11-13T20:41:07.052Z,40.95
2022-11-13T20:43:34.005Z,44.22
2022-11-13T20:46:07.584Z,43.28
2022-11-13T20:48:34.240Z,41.78
2022-11-13T20:51:16.048Z,44.55
2022-11-13T20:53:43.193Z,45.25
2022-11-13T20:56:10.214Z,45.63
2022-11-13T20:58:37.717Z,45.95
2022-11-13T21:01:06.948Z,51.35
2022-11-13T21:03:39.886Z,50.38
2022-11-13T21:06:12.061Z,49.30
2022-11-13T21:08:39.201Z,49.08
2022-11-13T21:11:07.101Z,51.92
2022-11-13T21:13:34.565Z,47.42
2022-11-13T21:16:08.771Z,50.72
2022-11-13T21:18:35.648Z,54.03
2022-11-13T21:21:22.900Z,51.03
2022-11-13T21:23:49.634Z,53.88
2022-11-13T21:26:16.633Z,50.80
2022-11-13T21:28:43.278Z,49.92
2022-11-13T21:31:18.094Z,53.70
2022-11-13T21:33:46.393Z,49.93
2022-11-13T21:36:18.927Z,49.25
2022-11-13T21:38:46.498Z,57.25
2022-11-13T21:41:14.690Z,52.85
2022-11-13T21:43:41.363Z,56.80
2022-11-13T21:46:08.080Z,61.20
2022-11-13T21:48:34.989Z,64.85
2022-11-13T21:51:01.912Z,72.80
2022-11-13T21:53:35.530Z,77.20
2022-11-13T21:56:02.242Z,70.25
2022-11-13T21:58:32.768Z,73.35
2022-11-13T22:01:00.084Z,77.38
2022-11-13T22:03:27.639Z,77.90
2022-11-13T22:06:12.986Z,79.50
2022-11-13T22:08:39.716Z,83.93
2022-11-13T22:11:06.767Z,83.53
2022-11-13T22:13:33.463Z,87.63
2022-11-13T22:16:03.702Z,81.75
2022-11-13T22:18:30.731Z,86.18
2022-11-13T22:21:06.603Z,85.47
2022-11-13T22:23:34.480Z,88.70
2022-11-13T22:26:05.961Z,92.80
2022-11-13T22:28:34.381Z,86.78
2022-11-13T22:31:01.532Z,93.70
2022-11-13T22:33:33.276Z,87.47
2022-11-13T22:36:05.468Z,94.93
2022-11-13T22:38:34.185Z,95.82
2022-11-13T22:41:05.894Z,99.80
2022-11-13T22:43:40.874Z,95.18
2022-11-13T22:46:13.585Z,93.28
2022-11-13T22:48:42.037Z,100.60
2022-11-13T22:51:14.312Z,101.43
2022-11-13T22:53:42.522Z,100.05
2022-11-13T22:56:14.188Z,103.15
2022-11-13T22:58:40.846Z,98.28
2022-11-13T23:01:16.786Z,100.22
2022-11-13T23:03:45.365Z,100.25
2022-11-13T23:06:13.297Z,99.18
2022-11-13T23:08:40.873Z,99.53
2022-11-13T23:11:11.515Z,96.25
2022-11-13T23:13:45.762Z,99.70
2022-11-13T23:16:13.034Z,98.90
2022-11-13T23:18:40.411Z,103.25
2022-11-13T23:21:08.564Z,105.68
2022-11-13T23:23:35.895Z,100.85
2022-11-13T23:26:03.152Z,112.38
2022-11-13T23:28:30.350Z,101.10
2022-11-13T23:30:57.334Z,99.28
2022-11-13T23:33:24.182Z,106.82
2022-11-13T23:35:51.592Z,100.10
2022-11-13T23:38:18.400Z,104.70
2022-11-13T23:40:45.122Z,103.35
2022-11-13T23:43:12.190Z,104.63
2022-11-13T23:45:38.830Z,103.22
2022-11-13T23:48:05.789Z,106.40
2022-11-13T23:50:32.476Z,103.38
2022-11-13T23:52:59.129Z,103.07
2022-11-13T23:55:25.784Z,108.15
2022-11-13T23:57:59.905Z,100.38
